sensor_id;sensor_type;location;lat;lon;timestamp;temperature;humidity
12166;DHT22;6146;48.128;11.476;2023-05-31T00:01:08;15.20;84.90
12166;DHT22;6146;48.128;11.476;2023-05-31T00:03:33;15.20;84.80
12166;DHT22;6146;48.128;11.476;2023-05-31T00:06:01;15.20;84.40
12166;DHT22;6146;48.128;11.476;2023-05-31T00:08:26;15.20;84.30
12166;DHT22;6146;48.128;11.476;2023-05-31T00:10:52;15.20;83.70
12166;DHT22;6146;48.128;11.476;2023-05-31T00:13:17;15.10;83.60
12166;DHT22;6146;48.128;11.476;2023-05-31T00:15:43;15.10;83.40
12166;DHT22;6146;48.128;11.476;2023-05-31T00:18:08;15.00;83.80
12166;DHT22;6146;48.128;11.476;2023-05-31T00:20:34;15.00;83.20
12166;DHT22;6146;48.128;11.476;2023-05-31T00:23:00;15.00;82.80
12166;DHT22;6146;48.128;11.476;2023-05-31T00:25:26;14.90;82.60
12166;DHT22;6146;48.128;11.476;2023-05-31T00:27:51;14.90;82.50
12166;DHT22;6146;48.128;11.476;2023-05-31T00:30:17;14.90;82.20
12166;DHT22;6146;48.128;11.476;2023-05-31T00:32:42;14.90;82.30
12166;DHT22;6146;48.128;11.476;2023-05-31T00:35:08;14.80;82.50
12166;DHT22;6146;48.128;11.476;2023-05-31T00:37:34;14.80;83.20
12166;DHT22;6146;48.128;11.476;2023-05-31T00:40:04;14.70;82.50
12166;DHT22;6146;48.128;11.476;2023-05-31T00:42:34;14.70;82.20
12166;DHT22;6146;48.128;11.476;2023-05-31T00:44:59;14.70;81.90
12166;DHT22;6146;48.128;11.476;2023-05-31T00:47:25;14.70;82.10
12166;DHT22;6146;48.128;11.476;2023-05-31T00:49:52;14.60;82.30
12166;DHT22;6146;48.128;11.476;2023-05-31T00:52:18;14.60;82.10
12166;DHT22;6146;48.128;11.476;2023-05-31T00:54:44;14.60;81.90
12166;DHT22;6146;48.128;11.476;2023-05-31T00:57:10;14.50;82.10
12166;DHT22;6146;48.128;11.476;2023-05-31T00:59:36;14.40;82.30
12166;DHT22;6146;48.128;11.476;2023-05-31T01:02:03;14.40;82.10
12166;DHT22;6146;48.128;11.476;2023-05-31T01:04:30;14.40;82.00
12166;DHT22;6146;48.128;11.476;2023-05-31T01:06:56;14.30;82.20
12166;DHT22;6146;48.128;11.476;2023-05-31T01:09:22;14.30;82.50
12166;DHT22;6146;48.128;11.476;2023-05-31T01:12:11;14.30;83.50
12166;DHT22;6146;48.128;11.476;2023-05-31T01:17:53;14.20;83.00
12166;DHT22;6146;48.128;11.476;2023-05-31T01:20:31;14.20;83.20
12166;DHT22;6146;48.128;11.476;2023-05-31T01:23:33;14.10;83.60
12166;DHT22;6146;48.128;11.476;2023-05-31T01:28:43;14.00;83.20
12166;DHT22;6146;48.128;11.476;2023-05-31T01:31:14;14.00;83.30
12166;DHT22;6146;48.128;11.476;2023-05-31T01:33:40;13.90;83.20
12166;DHT22;6146;48.128;11.476;2023-05-31T01:36:07;13.80;83.10
12166;DHT22;6146;48.128;11.476;2023-05-31T01:38:32;13.90;83.60
12166;DHT22;6146;48.128;11.476;2023-05-31T01:40:58;13.80;83.60
12166;DHT22;6146;48.128;11.476;2023-05-31T01:43:25;13.80;83.70
12166;DHT22;6146;48.128;11.476;2023-05-31T01:45:53;13.80;83.60
12166;DHT22;6146;48.128;11.476;2023-05-31T01:48:19;13.80;83.50
12166;DHT22;6146;48.128;11.476;2023-05-31T01:50:45;13.70;83.90
12166;DHT22;6146;48.128;11.476;2023-05-31T01:53:11;13.70;84.30
12166;DHT22;6146;48.128;11.476;2023-05-31T01:55:37;13.60;84.00
12166;DHT22;6146;48.128;11.476;2023-05-31T01:58:04;13.60;83.90
12166;DHT22;6146;48.128;11.476;2023-05-31T02:00:30;13.60;84.30
12166;DHT22;6146;48.128;11.476;2023-05-31T02:02:57;13.50;84.30
12166;DHT22;6146;48.128;11.476;2023-05-31T02:05:23;13.50;84.20
12166;DHT22;6146;48.128;11.476;2023-05-31T02:07:49;13.50;84.60
12166;DHT22;6146;48.128;11.476;2023-05-31T02:10:15;13.50;84.70
12166;DHT22;6146;48.128;11.476;2023-05-31T02:12:40;13.40;85.10
12166;DHT22;6146;48.128;11.476;2023-05-31T02:15:07;13.40;85.60
12166;DHT22;6146;48.128;11.476;2023-05-31T02:17:40;13.30;85.80
12166;DHT22;6146;48.128;11.476;2023-05-31T02:20:13;13.30;86.10
12166;DHT22;6146;48.128;11.476;2023-05-31T02:22:45;13.20;86.70
12166;DHT22;6146;48.128;11.476;2023-05-31T02:25:12;13.20;86.60
12166;DHT22;6146;48.128;11.476;2023-05-31T02:27:38;13.20;86.60
12166;DHT22;6146;48.128;11.476;2023-05-31T02:30:05;13.10;86.80
12166;DHT22;6146;48.128;11.476;2023-05-31T02:32:32;13.10;86.40
12166;DHT22;6146;48.128;11.476;2023-05-31T02:35:03;13.00;87.00
12166;DHT22;6146;48.128;11.476;2023-05-31T02:37:29;13.00;88.40
12166;DHT22;6146;48.128;11.476;2023-05-31T02:39:55;13.00;87.90
12166;DHT22;6146;48.128;11.476;2023-05-31T02:42:21;12.90;88.30
12166;DHT22;6146;48.128;11.476;2023-05-31T02:44:46;12.80;88.60
12166;DHT22;6146;48.128;11.476;2023-05-31T02:47:12;12.80;88.90
12166;DHT22;6146;48.128;11.476;2023-05-31T02:49:37;12.80;89.50
12166;DHT22;6146;48.128;11.476;2023-05-31T02:52:03;12.70;88.80
12166;DHT22;6146;48.128;11.476;2023-05-31T02:54:29;12.70;88.70
12166;DHT22;6146;48.128;11.476;2023-05-31T02:56:54;12.70;89.10
12166;DHT22;6146;48.128;11.476;2023-05-31T02:59:20;12.70;89.00
12166;DHT22;6146;48.128;11.476;2023-05-31T03:01:46;12.70;89.50
12166;DHT22;6146;48.128;11.476;2023-05-31T03:04:11;12.60;90.00
12166;DHT22;6146;48.128;11.476;2023-05-31T03:06:37;12.50;90.20
12166;DHT22;6146;48.128;11.476;2023-05-31T03:09:05;12.50;90.50
12166;DHT22;6146;48.128;11.476;2023-05-31T03:11:31;12.50;90.30
12166;DHT22;6146;48.128;11.476;2023-05-31T03:13:56;12.50;90.30
12166;DHT22;6146;48.128;11.476;2023-05-31T03:16:22;12.50;90.40
12166;DHT22;6146;48.128;11.476;2023-05-31T03:18:48;12.40;90.30
12166;DHT22;6146;48.128;11.476;2023-05-31T03:21:14;12.50;90.40
12166;DHT22;6146;48.128;11.476;2023-05-31T03:23:40;12.40;90.50
12166;DHT22;6146;48.128;11.476;2023-05-31T03:26:06;12.40;90.30
12166;DHT22;6146;48.128;11.476;2023-05-31T03:28:31;12.40;90.50
12166;DHT22;6146;48.128;11.476;2023-05-31T03:30:57;12.40;90.50
12166;DHT22;6146;48.128;11.476;2023-05-31T03:33:23;12.40;90.60
12166;DHT22;6146;48.128;11.476;2023-05-31T03:35:49;12.40;90.70
12166;DHT22;6146;48.128;11.476;2023-05-31T03:38:14;12.40;90.80
12166;DHT22;6146;48.128;11.476;2023-05-31T03:40:40;12.30;90.80
12166;DHT22;6146;48.128;11.476;2023-05-31T03:43:06;12.40;90.70
12166;DHT22;6146;48.128;11.476;2023-05-31T03:45:31;12.40;90.50
12166;DHT22;6146;48.128;11.476;2023-05-31T03:47:57;12.40;90.70
12166;DHT22;6146;48.128;11.476;2023-05-31T03:50:22;12.50;90.80
12166;DHT22;6146;48.128;11.476;2023-05-31T03:52:48;12.50;90.50
12166;DHT22;6146;48.128;11.476;2023-05-31T03:55:13;12.50;90.70
12166;DHT22;6146;48.128;11.476;2023-05-31T03:57:39;12.50;90.80
12166;DHT22;6146;48.128;11.476;2023-05-31T04:00:06;12.50;90.70
12166;DHT22;6146;48.128;11.476;2023-05-31T04:02:31;12.60;90.90
12166;DHT22;6146;48.128;11.476;2023-05-31T04:04:57;12.60;90.90
12166;DHT22;6146;48.128;11.476;2023-05-31T04:07:23;12.60;91.00
12166;DHT22;6146;48.128;11.476;2023-05-31T04:09:48;12.60;91.10
12166;DHT22;6146;48.128;11.476;2023-05-31T04:12:14;12.60;91.10
12166;DHT22;6146;48.128;11.476;2023-05-31T04:14:39;12.70;90.90
12166;DHT22;6146;48.128;11.476;2023-05-31T04:17:05;12.70;91.00
12166;DHT22;6146;48.128;11.476;2023-05-31T04:19:31;12.80;91.30
12166;DHT22;6146;48.128;11.476;2023-05-31T04:21:56;12.80;91.40
12166;DHT22;6146;48.128;11.476;2023-05-31T04:24:22;12.80;91.30
12166;DHT22;6146;48.128;11.476;2023-05-31T04:26:47;12.90;91.20
12166;DHT22;6146;48.128;11.476;2023-05-31T04:29:13;13.00;90.70
12166;DHT22;6146;48.128;11.476;2023-05-31T04:31:39;13.00;90.70
12166;DHT22;6146;48.128;11.476;2023-05-31T04:34:05;13.20;90.90
12166;DHT22;6146;48.128;11.476;2023-05-31T04:36:30;13.40;90.70
12166;DHT22;6146;48.128;11.476;2023-05-31T04:38:58;13.70;90.00
12166;DHT22;6146;48.128;11.476;2023-05-31T04:41:24;14.80;85.20
12166;DHT22;6146;48.128;11.476;2023-05-31T04:43:51;16.00;81.20
12166;DHT22;6146;48.128;11.476;2023-05-31T04:46:18;17.20;76.70
12166;DHT22;6146;48.128;11.476;2023-05-31T04:48:45;18.20;71.50
12166;DHT22;6146;48.128;11.476;2023-05-31T04:51:12;18.20;71.80
12166;DHT22;6146;48.128;11.476;2023-05-31T04:53:39;18.70;70.90
12166;DHT22;6146;48.128;11.476;2023-05-31T04:56:05;19.40;66.20
12166;DHT22;6146;48.128;11.476;2023-05-31T04:58:33;20.00;65.20
12166;DHT22;6146;48.128;11.476;2023-05-31T05:00:58;20.20;62.10
12166;DHT22;6146;48.128;11.476;2023-05-31T05:03:25;19.90;64.10
12166;DHT22;6146;48.128;11.476;2023-05-31T05:05:51;20.40;63.10
12166;DHT22;6146;48.128;11.476;2023-05-31T05:08:17;20.70;61.10
12166;DHT22;6146;48.128;11.476;2023-05-31T05:10:43;20.70;60.10
12166;DHT22;6146;48.128;11.476;2023-05-31T05:13:09;20.80;60.30
12166;DHT22;6146;48.128;11.476;2023-05-31T05:15:35;20.70;60.10
12166;DHT22;6146;48.128;11.476;2023-05-31T05:18:02;20.90;59.80
12166;DHT22;6146;48.128;11.476;2023-05-31T05:20:27;21.10;58.80
12166;DHT22;6146;48.128;11.476;2023-05-31T05:22:53;20.60;59.30
12166;DHT22;6146;48.128;11.476;2023-05-31T05:25:19;20.40;60.50
12166;DHT22;6146;48.128;11.476;2023-05-31T05:27:47;20.20;60.40
12166;DHT22;6146;48.128;11.476;2023-05-31T05:30:13;20.10;61.00
12166;DHT22;6146;48.128;11.476;2023-05-31T05:32:38;20.30;61.90
12166;DHT22;6146;48.128;11.476;2023-05-31T05:35:04;20.30;59.90
12166;DHT22;6146;48.128;11.476;2023-05-31T05:37:31;20.40;60.00
12166;DHT22;6146;48.128;11.476;2023-05-31T05:39:57;20.80;59.10
12166;DHT22;6146;48.128;11.476;2023-05-31T05:42:24;21.80;57.90
12166;DHT22;6146;48.128;11.476;2023-05-31T05:44:50;22.60;55.00
12166;DHT22;6146;48.128;11.476;2023-05-31T05:47:16;22.60;54.30
12166;DHT22;6146;48.128;11.476;2023-05-31T05:49:41;22.90;54.80
12166;DHT22;6146;48.128;11.476;2023-05-31T05:52:07;23.50;52.50
12166;DHT22;6146;48.128;11.476;2023-05-31T05:54:32;24.00;52.00
12166;DHT22;6146;48.128;11.476;2023-05-31T05:56:58;24.20;51.00
12166;DHT22;6146;48.128;11.476;2023-05-31T05:59:24;24.50;50.30
12166;DHT22;6146;48.128;11.476;2023-05-31T06:01:50;25.00;49.20
12166;DHT22;6146;48.128;11.476;2023-05-31T06:04:15;25.50;48.40
12166;DHT22;6146;48.128;11.476;2023-05-31T06:06:41;25.10;48.20
12166;DHT22;6146;48.128;11.476;2023-05-31T06:09:06;24.80;49.20
12166;DHT22;6146;48.128;11.476;2023-05-31T06:11:32;25.40;48.70
12166;DHT22;6146;48.128;11.476;2023-05-31T06:13:58;26.10;47.20
12166;DHT22;6146;48.128;11.476;2023-05-31T06:16:24;26.90;45.50
12166;DHT22;6146;48.128;11.476;2023-05-31T06:18:49;26.70;44.90
12166;DHT22;6146;48.128;11.476;2023-05-31T06:21:15;26.00;46.50
12166;DHT22;6146;48.128;11.476;2023-05-31T06:23:41;26.30;47.10
12166;DHT22;6146;48.128;11.476;2023-05-31T06:26:07;26.40;45.80
12166;DHT22;6146;48.128;11.476;2023-05-31T06:28:32;26.30;46.10
12166;DHT22;6146;48.128;11.476;2023-05-31T06:30:58;26.40;45.40
12166;DHT22;6146;48.128;11.476;2023-05-31T06:33:26;27.10;44.60
12166;DHT22;6146;48.128;11.476;2023-05-31T06:35:51;27.50;44.20
12166;DHT22;6146;48.128;11.476;2023-05-31T06:38:17;28.30;43.10
12166;DHT22;6146;48.128;11.476;2023-05-31T06:40:43;27.90;43.90
12166;DHT22;6146;48.128;11.476;2023-05-31T06:43:09;27.80;42.50
12166;DHT22;6146;48.128;11.476;2023-05-31T06:45:35;26.90;44.40
12166;DHT22;6146;48.128;11.476;2023-05-31T06:48:01;26.90;44.40
12166;DHT22;6146;48.128;11.476;2023-05-31T06:50:27;26.40;44.80
12166;DHT22;6146;48.128;11.476;2023-05-31T06:52:52;26.70;45.20
12166;DHT22;6146;48.128;11.476;2023-05-31T06:55:18;27.20;44.40
12166;DHT22;6146;48.128;11.476;2023-05-31T06:57:43;28.40;42.60
12166;DHT22;6146;48.128;11.476;2023-05-31T07:00:09;26.80;44.50
12166;DHT22;6146;48.128;11.476;2023-05-31T07:02:35;26.20;47.10
12166;DHT22;6146;48.128;11.476;2023-05-31T07:05:01;27.20;45.10
12166;DHT22;6146;48.128;11.476;2023-05-31T07:07:27;27.40;44.60
12166;DHT22;6146;48.128;11.476;2023-05-31T07:09:52;27.80;43.70
12166;DHT22;6146;48.128;11.476;2023-05-31T07:12:18;28.30;42.70
12166;DHT22;6146;48.128;11.476;2023-05-31T07:14:43;28.00;42.90
12166;DHT22;6146;48.128;11.476;2023-05-31T07:17:09;28.00;43.30
12166;DHT22;6146;48.128;11.476;2023-05-31T07:19:48;28.50;42.60
12166;DHT22;6146;48.128;11.476;2023-05-31T07:22:14;28.80;42.00
12166;DHT22;6146;48.128;11.476;2023-05-31T07:24:40;29.00;41.70
12166;DHT22;6146;48.128;11.476;2023-05-31T07:27:06;28.50;42.90
12166;DHT22;6146;48.128;11.476;2023-05-31T07:29:33;28.60;42.50
12166;DHT22;6146;48.128;11.476;2023-05-31T07:31:58;28.60;43.00
12166;DHT22;6146;48.128;11.476;2023-05-31T07:34:24;28.50;42.50
12166;DHT22;6146;48.128;11.476;2023-05-31T07:36:49;28.10;43.80
12166;DHT22;6146;48.128;11.476;2023-05-31T07:39:15;27.90;43.70
12166;DHT22;6146;48.128;11.476;2023-05-31T07:41:41;28.30;43.90
12166;DHT22;6146;48.128;11.476;2023-05-31T07:44:08;28.70;42.10
12166;DHT22;6146;48.128;11.476;2023-05-31T07:46:34;28.70;42.40
12166;DHT22;6146;48.128;11.476;2023-05-31T07:49:01;28.40;43.50
12166;DHT22;6146;48.128;11.476;2023-05-31T07:51:30;28.30;42.70
12166;DHT22;6146;48.128;11.476;2023-05-31T07:53:57;28.40;43.80
12166;DHT22;6146;48.128;11.476;2023-05-31T07:56:23;28.10;42.70
12166;DHT22;6146;48.128;11.476;2023-05-31T07:58:49;28.00;44.70
12166;DHT22;6146;48.128;11.476;2023-05-31T08:01:15;28.60;42.60
12166;DHT22;6146;48.128;11.476;2023-05-31T08:03:41;28.40;43.70
12166;DHT22;6146;48.128;11.476;2023-05-31T08:06:07;28.40;42.90
12166;DHT22;6146;48.128;11.476;2023-05-31T08:08:32;27.90;43.90
12166;DHT22;6146;48.128;11.476;2023-05-31T08:10:59;27.70;44.00
12166;DHT22;6146;48.128;11.476;2023-05-31T08:13:26;28.30;43.80
12166;DHT22;6146;48.128;11.476;2023-05-31T08:15:51;28.50;43.60
12166;DHT22;6146;48.128;11.476;2023-05-31T08:18:18;29.50;41.50
12166;DHT22;6146;48.128;11.476;2023-05-31T08:20:43;29.90;41.50
12166;DHT22;6146;48.128;11.476;2023-05-31T08:23:16;30.40;40.00
12166;DHT22;6146;48.128;11.476;2023-05-31T08:25:42;29.40;40.60
12166;DHT22;6146;48.128;11.476;2023-05-31T08:28:07;28.20;43.20
12166;DHT22;6146;48.128;11.476;2023-05-31T08:30:33;28.80;43.20
12166;DHT22;6146;48.128;11.476;2023-05-31T08:32:58;28.90;43.00
12166;DHT22;6146;48.128;11.476;2023-05-31T08:35:24;28.70;42.80
12166;DHT22;6146;48.128;11.476;2023-05-31T08:37:49;29.20;41.40
12166;DHT22;6146;48.128;11.476;2023-05-31T08:40:15;28.60;42.50
12166;DHT22;6146;48.128;11.476;2023-05-31T08:42:53;28.60;42.80
12166;DHT22;6146;48.128;11.476;2023-05-31T08:45:20;29.10;41.10
12166;DHT22;6146;48.128;11.476;2023-05-31T08:47:53;28.60;42.20
12166;DHT22;6146;48.128;11.476;2023-05-31T08:50:22;29.70;40.30
12166;DHT22;6146;48.128;11.476;2023-05-31T08:52:51;29.10;40.60
12166;DHT22;6146;48.128;11.476;2023-05-31T08:55:18;29.20;41.30
12166;DHT22;6146;48.128;11.476;2023-05-31T08:57:44;29.80;39.90
12166;DHT22;6146;48.128;11.476;2023-05-31T09:00:10;29.20;40.20
12166;DHT22;6146;48.128;11.476;2023-05-31T09:02:37;28.60;40.80
12166;DHT22;6146;48.128;11.476;2023-05-31T09:05:04;28.40;41.80
12166;DHT22;6146;48.128;11.476;2023-05-31T09:07:31;28.60;41.50
12166;DHT22;6146;48.128;11.476;2023-05-31T09:09:56;27.90;42.60
12166;DHT22;6146;48.128;11.476;2023-05-31T09:12:22;28.30;41.90
12166;DHT22;6146;48.128;11.476;2023-05-31T09:14:48;28.60;39.90
12166;DHT22;6146;48.128;11.476;2023-05-31T09:17:13;29.10;40.20
12166;DHT22;6146;48.128;11.476;2023-05-31T09:20:00;29.60;39.40
12166;DHT22;6146;48.128;11.476;2023-05-31T09:22:26;30.50;38.90
12166;DHT22;6146;48.128;11.476;2023-05-31T09:24:59;30.30;38.70
12166;DHT22;6146;48.128;11.476;2023-05-31T09:27:26;30.30;38.90
12166;DHT22;6146;48.128;11.476;2023-05-31T09:29:55;30.40;38.10
12166;DHT22;6146;48.128;11.476;2023-05-31T09:32:21;31.30;37.40
12166;DHT22;6146;48.128;11.476;2023-05-31T09:34:47;30.90;37.20
12166;DHT22;6146;48.128;11.476;2023-05-31T09:37:23;30.20;38.50
12166;DHT22;6146;48.128;11.476;2023-05-31T09:39:57;30.80;37.30
12166;DHT22;6146;48.128;11.476;2023-05-31T09:42:26;31.00;37.30
12166;DHT22;6146;48.128;11.476;2023-05-31T09:44:54;30.80;38.00
12166;DHT22;6146;48.128;11.476;2023-05-31T09:47:24;30.80;37.10
12166;DHT22;6146;48.128;11.476;2023-05-31T09:49:56;29.90;37.90
12166;DHT22;6146;48.128;11.476;2023-05-31T09:52:30;29.50;38.70
12166;DHT22;6146;48.128;11.476;2023-05-31T09:54:56;30.30;37.60
12166;DHT22;6146;48.128;11.476;2023-05-31T09:57:33;30.10;37.30
12166;DHT22;6146;48.128;11.476;2023-05-31T10:00:09;29.40;40.00
12166;DHT22;6146;48.128;11.476;2023-05-31T10:02:42;28.90;38.60
12166;DHT22;6146;48.128;11.476;2023-05-31T10:05:09;28.50;40.50
12166;DHT22;6146;48.128;11.476;2023-05-31T10:07:36;28.90;39.30
12166;DHT22;6146;48.128;11.476;2023-05-31T10:10:02;28.60;38.60
12166;DHT22;6146;48.128;11.476;2023-05-31T10:12:29;28.10;41.00
12166;DHT22;6146;48.128;11.476;2023-05-31T10:15:01;29.10;38.80
12166;DHT22;6146;48.128;11.476;2023-05-31T10:17:29;29.40;38.80
12166;DHT22;6146;48.128;11.476;2023-05-31T10:19:59;30.20;36.90
12166;DHT22;6146;48.128;11.476;2023-05-31T10:22:30;30.10;37.40
12166;DHT22;6146;48.128;11.476;2023-05-31T10:25:06;28.90;39.00
12166;DHT22;6146;48.128;11.476;2023-05-31T10:27:44;28.90;38.40
12166;DHT22;6146;48.128;11.476;2023-05-31T10:30:12;28.70;38.90
12166;DHT22;6146;48.128;11.476;2023-05-31T10:32:42;28.70;38.00
12166;DHT22;6146;48.128;11.476;2023-05-31T10:35:09;27.50;40.40
12166;DHT22;6146;48.128;11.476;2023-05-31T10:37:38;28.40;39.20
12166;DHT22;6146;48.128;11.476;2023-05-31T10:42:54;29.20;37.80
12166;DHT22;6146;48.128;11.476;2023-05-31T10:45:26;29.80;37.60
12166;DHT22;6146;48.128;11.476;2023-05-31T10:47:56;29.30;37.40
12166;DHT22;6146;48.128;11.476;2023-05-31T10:50:24;28.70;39.40
12166;DHT22;6146;48.128;11.476;2023-05-31T10:53:09;28.90;37.70
12166;DHT22;6146;48.128;11.476;2023-05-31T10:55:42;28.00;38.50
12166;DHT22;6146;48.128;11.476;2023-05-31T10:58:25;27.50;39.50
12166;DHT22;6146;48.128;11.476;2023-05-31T11:00:57;27.80;39.10
12166;DHT22;6146;48.128;11.476;2023-05-31T11:03:27;28.10;38.30
12166;DHT22;6146;48.128;11.476;2023-05-31T11:05:59;28.10;39.10
12166;DHT22;6146;48.128;11.476;2023-05-31T11:08:25;27.80;39.20
12166;DHT22;6146;48.128;11.476;2023-05-31T11:10:51;28.40;38.90
12166;DHT22;6146;48.128;11.476;2023-05-31T11:13:17;27.60;38.00
12166;DHT22;6146;48.128;11.476;2023-05-31T11:15:45;27.30;39.10
12166;DHT22;6146;48.128;11.476;2023-05-31T11:18:26;27.20;39.30
12166;DHT22;6146;48.128;11.476;2023-05-31T11:20:51;27.20;40.40
12166;DHT22;6146;48.128;11.476;2023-05-31T11:23:23;28.00;40.00
12166;DHT22;6146;48.128;11.476;2023-05-31T11:26:09;27.30;39.20
12166;DHT22;6146;48.128;11.476;2023-05-31T11:29:00;25.70;40.10
12166;DHT22;6146;48.128;11.476;2023-05-31T11:34:22;25.50;41.70
12166;DHT22;6146;48.128;11.476;2023-05-31T11:36:57;24.80;42.00
12166;DHT22;6146;48.128;11.476;2023-05-31T11:39:24;24.90;43.00
12166;DHT22;6146;48.128;11.476;2023-05-31T11:41:50;25.10;42.30
12166;DHT22;6146;48.128;11.476;2023-05-31T11:44:21;25.20;42.60
12166;DHT22;6146;48.128;11.476;2023-05-31T11:47:05;25.00;43.70
12166;DHT22;6146;48.128;11.476;2023-05-31T11:49:31;25.30;44.20
12166;DHT22;6146;48.128;11.476;2023-05-31T11:51:57;25.20;43.50
12166;DHT22;6146;48.128;11.476;2023-05-31T11:54:31;25.30;44.30
12166;DHT22;6146;48.128;11.476;2023-05-31T11:57:05;25.00;41.90
12166;DHT22;6146;48.128;11.476;2023-05-31T11:59:35;24.20;45.10
12166;DHT22;6146;48.128;11.476;2023-05-31T12:02:02;24.00;46.50
12166;DHT22;6146;48.128;11.476;2023-05-31T12:04:30;24.20;46.60
12166;DHT22;6146;48.128;11.476;2023-05-31T12:06:56;24.60;45.20
12166;DHT22;6146;48.128;11.476;2023-05-31T12:09:28;24.70;44.70
12166;DHT22;6146;48.128;11.476;2023-05-31T12:11:54;24.70;46.60
12166;DHT22;6146;48.128;11.476;2023-05-31T12:14:25;25.10;46.00
12166;DHT22;6146;48.128;11.476;2023-05-31T12:16:52;25.10;44.70
12166;DHT22;6146;48.128;11.476;2023-05-31T12:19:18;24.90;45.20
12166;DHT22;6146;48.128;11.476;2023-05-31T12:21:44;24.90;45.00
12166;DHT22;6146;48.128;11.476;2023-05-31T12:24:15;25.20;44.90
12166;DHT22;6146;48.128;11.476;2023-05-31T12:26:45;24.70;44.70
12166;DHT22;6146;48.128;11.476;2023-05-31T12:29:12;24.30;46.10
12166;DHT22;6146;48.128;11.476;2023-05-31T12:31:38;24.40;44.50
12166;DHT22;6146;48.128;11.476;2023-05-31T12:36:48;24.40;44.90
12166;DHT22;6146;48.128;11.476;2023-05-31T12:39:20;24.70;45.50
12166;DHT22;6146;48.128;11.476;2023-05-31T12:41:50;24.80;45.20
12166;DHT22;6146;48.128;11.476;2023-05-31T12:44:20;24.50;43.50
12166;DHT22;6146;48.128;11.476;2023-05-31T12:46:48;24.20;44.40
12166;DHT22;6146;48.128;11.476;2023-05-31T12:49:20;23.90;45.40
12166;DHT22;6146;48.128;11.476;2023-05-31T12:51:48;24.10;45.90
12166;DHT22;6146;48.128;11.476;2023-05-31T12:54:16;24.20;46.20
12166;DHT22;6146;48.128;11.476;2023-05-31T12:56:42;24.20;49.10
12166;DHT22;6146;48.128;11.476;2023-05-31T12:59:08;24.20;49.20
12166;DHT22;6146;48.128;11.476;2023-05-31T13:01:35;24.50;49.80
12166;DHT22;6146;48.128;11.476;2023-05-31T13:04:01;24.90;47.90
12166;DHT22;6146;48.128;11.476;2023-05-31T13:06:26;24.60;47.70
12166;DHT22;6146;48.128;11.476;2023-05-31T13:08:52;24.70;47.80
12166;DHT22;6146;48.128;11.476;2023-05-31T13:11:18;24.80;47.60
12166;DHT22;6146;48.128;11.476;2023-05-31T13:13:43;24.70;46.80
12166;DHT22;6146;48.128;11.476;2023-05-31T13:16:09;24.40;48.00
12166;DHT22;6146;48.128;11.476;2023-05-31T13:18:35;24.60;47.10
12166;DHT22;6146;48.128;11.476;2023-05-31T13:21:00;24.60;47.00
12166;DHT22;6146;48.128;11.476;2023-05-31T13:23:26;24.70;47.30
12166;DHT22;6146;48.128;11.476;2023-05-31T13:25:51;24.10;48.10
12166;DHT22;6146;48.128;11.476;2023-05-31T13:28:17;24.20;48.50
12166;DHT22;6146;48.128;11.476;2023-05-31T13:30:43;24.40;48.00
12166;DHT22;6146;48.128;11.476;2023-05-31T13:33:08;24.10;48.80
12166;DHT22;6146;48.128;11.476;2023-05-31T13:35:34;24.30;48.40
12166;DHT22;6146;48.128;11.476;2023-05-31T13:38:02;24.40;47.80
12166;DHT22;6146;48.128;11.476;2023-05-31T13:40:27;24.40;47.60
12166;DHT22;6146;48.128;11.476;2023-05-31T13:42:53;24.50;47.30
12166;DHT22;6146;48.128;11.476;2023-05-31T13:45:19;24.50;46.80
12166;DHT22;6146;48.128;11.476;2023-05-31T13:47:44;24.60;47.00
12166;DHT22;6146;48.128;11.476;2023-05-31T13:50:10;24.30;46.30
12166;DHT22;6146;48.128;11.476;2023-05-31T13:52:36;24.20;48.10
12166;DHT22;6146;48.128;11.476;2023-05-31T13:55:01;24.20;47.70
12166;DHT22;6146;48.128;11.476;2023-05-31T13:57:27;24.10;48.70
12166;DHT22;6146;48.128;11.476;2023-05-31T13:59:53;24.20;48.90
12166;DHT22;6146;48.128;11.476;2023-05-31T14:02:18;24.20;46.60
12166;DHT22;6146;48.128;11.476;2023-05-31T14:04:44;24.10;45.70
12166;DHT22;6146;48.128;11.476;2023-05-31T14:07:10;23.80;47.60
12166;DHT22;6146;48.128;11.476;2023-05-31T14:09:36;24.00;48.50
12166;DHT22;6146;48.128;11.476;2023-05-31T14:12:02;24.10;48.30
12166;DHT22;6146;48.128;11.476;2023-05-31T14:14:28;24.00;48.00
12166;DHT22;6146;48.128;11.476;2023-05-31T14:16:53;24.10;46.90
12166;DHT22;6146;48.128;11.476;2023-05-31T14:19:19;24.20;47.20
12166;DHT22;6146;48.128;11.476;2023-05-31T14:21:44;24.30;45.90
12166;DHT22;6146;48.128;11.476;2023-05-31T14:24:10;24.20;47.10
12166;DHT22;6146;48.128;11.476;2023-05-31T14:26:36;24.40;47.10
12166;DHT22;6146;48.128;11.476;2023-05-31T14:29:01;24.40;45.70
12166;DHT22;6146;48.128;11.476;2023-05-31T14:31:27;24.40;45.20
12166;DHT22;6146;48.128;11.476;2023-05-31T14:33:53;24.00;44.40
12166;DHT22;6146;48.128;11.476;2023-05-31T14:36:18;23.80;45.20
12166;DHT22;6146;48.128;11.476;2023-05-31T14:38:44;23.80;45.50
12166;DHT22;6146;48.128;11.476;2023-05-31T14:41:10;23.90;45.50
12166;DHT22;6146;48.128;11.476;2023-05-31T14:43:35;24.10;45.70
12166;DHT22;6146;48.128;11.476;2023-05-31T14:46:01;24.00;47.40
12166;DHT22;6146;48.128;11.476;2023-05-31T14:48:26;23.90;47.20
12166;DHT22;6146;48.128;11.476;2023-05-31T14:50:52;23.90;46.20
12166;DHT22;6146;48.128;11.476;2023-05-31T14:53:18;23.60;44.90
12166;DHT22;6146;48.128;11.476;2023-05-31T14:55:43;23.70;44.40
12166;DHT22;6146;48.128;11.476;2023-05-31T14:58:09;23.70;46.30
12166;DHT22;6146;48.128;11.476;2023-05-31T15:00:36;23.70;45.70
12166;DHT22;6146;48.128;11.476;2023-05-31T15:03:01;23.70;45.40
12166;DHT22;6146;48.128;11.476;2023-05-31T15:05:27;23.70;45.00
12166;DHT22;6146;48.128;11.476;2023-05-31T15:07:53;23.90;44.20
12166;DHT22;6146;48.128;11.476;2023-05-31T15:10:18;24.00;43.40
12166;DHT22;6146;48.128;11.476;2023-05-31T15:12:44;24.00;43.60
12166;DHT22;6146;48.128;11.476;2023-05-31T15:15:13;23.90;42.80
12166;DHT22;6146;48.128;11.476;2023-05-31T15:17:40;23.90;42.20
12166;DHT22;6146;48.128;11.476;2023-05-31T15:20:06;23.90;42.30
12166;DHT22;6146;48.128;11.476;2023-05-31T15:22:32;23.80;43.20
12166;DHT22;6146;48.128;11.476;2023-05-31T15:24:58;23.70;44.40
12166;DHT22;6146;48.128;11.476;2023-05-31T15:27:23;23.70;44.20
12166;DHT22;6146;48.128;11.476;2023-05-31T15:29:49;23.70;43.20
12166;DHT22;6146;48.128;11.476;2023-05-31T15:32:14;23.70;42.70
12166;DHT22;6146;48.128;11.476;2023-05-31T15:34:40;23.80;43.90
12166;DHT22;6146;48.128;11.476;2023-05-31T15:37:06;23.70;43.60
12166;DHT22;6146;48.128;11.476;2023-05-31T15:39:31;23.50;44.00
12166;DHT22;6146;48.128;11.476;2023-05-31T15:41:57;23.40;45.20
12166;DHT22;6146;48.128;11.476;2023-05-31T15:44:22;23.30;46.00